createdAt,value
2023-02-15T00:02:02.898Z,1.90
2023-02-15T00:04:47.318Z,1.90
2023-02-15T00:07:16.777Z,1.90
2023-02-15T00:09:45.787Z,1.90
2023-02-15T00:12:13.064Z,1.90
2023-02-15T00:14:40.355Z,1.80
2023-02-15T00:17:07.562Z,1.70
2023-02-15T00:19:35.021Z,1.70
2023-02-15T00:22:02.365Z,1.80
2023-02-15T00:24:29.641Z,1.80
2023-02-15T00:26:56.856Z,1.70
2023-02-15T00:29:24.338Z,1.70
2023-02-15T00:31:52.083Z,1.70
2023-02-15T00:34:23.173Z,1.70
2023-02-15T00:36:51.201Z,1.70
2023-02-15T00:39:19.392Z,1.70
2023-02-15T00:41:47.713Z,1.70
2023-02-15T00:44:15.235Z,1.70
2023-02-15T00:46:42.689Z,1.80
2023-02-15T00:49:11.085Z,1.80
2023-02-15T00:51:38.900Z,1.70
2023-02-15T00:54:06.598Z,1.60
2023-02-15T00:56:33.844Z,1.60
2023-02-15T00:59:01.196Z,1.60
2023-02-15T01:01:28.486Z,1.50
2023-02-15T01:03:55.714Z,1.50
2023-02-15T01:06:23.159Z,1.50
2023-02-15T01:08:50.467Z,1.50
2023-02-15T01:11:23.352Z,1.40
2023-02-15T01:13:54.042Z,1.40
2023-02-15T01:16:22.265Z,1.40
2023-02-15T01:18:49.680Z,1.40
2023-02-15T01:21:19.911Z,1.40
2023-02-15T01:23:47.321Z,1.30
2023-02-15T01:26:15.692Z,1.30
2023-02-15T01:28:44.745Z,1.30
2023-02-15T01:31:15.200Z,1.30
2023-02-15T01:33:43.008Z,1.20
2023-02-15T01:36:11.028Z,1.20
2023-02-15T01:38:41.062Z,1.10
2023-02-15T01:41:28.234Z,1.10
2023-02-15T01:44:01.174Z,1.10
2023-02-15T01:46:51.678Z,1.10
2023-02-15T01:49:24.856Z,1.20
2023-02-15T01:51:53.970Z,1.20
2023-02-15T01:54:30.183Z,1.20
2023-02-15T01:57:03.491Z,1.20
2023-02-15T01:59:33.513Z,1.10
2023-02-15T02:02:02.100Z,1.10
2023-02-15T02:04:46.766Z,1.10
2023-02-15T02:07:16.670Z,1.10
2023-02-15T02:09:45.566Z,1.10
2023-02-15T02:12:13.488Z,1.10
2023-02-15T02:14:41.751Z,1.10
2023-02-15T02:17:17.615Z,1.10
2023-02-15T02:20:16.424Z,1.10
2023-02-15T02:23:02.135Z,1.10
2023-02-15T02:25:57.572Z,1.10
2023-02-15T02:28:52.775Z,1.20
2023-02-15T02:31:50.286Z,1.20
2023-02-15T02:34:17.546Z,1.30
2023-02-15T02:36:53.696Z,1.30
2023-02-15T02:39:33.213Z,1.30
2023-02-15T02:42:30.946Z,1.20
2023-02-15T02:45:05.801Z,1.20
2023-02-15T02:47:45.825Z,1.20
2023-02-15T02:50:19.721Z,1.20
2023-02-15T02:52:49.085Z,1.20
2023-02-15T02:55:31.649Z,1.20
2023-02-15T02:58:05.578Z,1.20
2023-02-15T03:00:40.814Z,1.20
2023-02-15T03:03:13.561Z,1.30
2023-02-15T03:05:45.596Z,1.20
2023-02-15T03:08:22.644Z,1.10
2023-02-15T03:10:54.324Z,1.20
2023-02-15T03:13:22.650Z,1.20
2023-02-15T03:16:09.728Z,1.10
2023-02-15T03:18:45.189Z,1.10
2023-02-15T03:21:23.258Z,1.10
2023-02-15T03:24:22.098Z,1.10
2023-02-15T03:26:52.824Z,1.00
2023-02-15T03:29:23.251Z,1.00
2023-02-15T03:31:58.075Z,0.90
2023-02-15T03:34:25.861Z,0.90
2023-02-15T03:37:26.250Z,0.90
2023-02-15T03:40:19.068Z,0.70
2023-02-15T03:42:49.351Z,0.70
2023-02-15T03:45:22.442Z,0.60
2023-02-15T03:47:52.585Z,0.70
2023-02-15T03:50:48.351Z,0.70
2023-02-15T03:53:18.908Z,0.60
2023-02-15T03:55:54.230Z,0.60
2023-02-15T03:58:40.040Z,0.60
2023-02-15T04:01:42.036Z,0.50
2023-02-15T04:04:24.664Z,0.50
2023-02-15T04:06:52.870Z,0.50
2023-02-15T04:09:38.729Z,0.60
2023-02-15T04:12:06.068Z,0.60
2023-02-15T04:14:51.960Z,0.60
2023-02-15T04:17:19.257Z,0.60
2023-02-15T04:20:04.762Z,0.60
2023-02-15T04:22:50.496Z,0.60
2023-02-15T04:25:17.804Z,0.50
2023-02-15T04:27:55.586Z,0.60
2023-02-15T04:30:25.468Z,0.60
2023-02-15T04:32:52.965Z,0.60
2023-02-15T04:35:20.239Z,0.60
2023-02-15T04:37:47.515Z,0.60
2023-02-15T04:40:18.728Z,0.60
2023-02-15T04:42:50.102Z,0.60
2023-02-15T04:45:18.167Z,0.50
2023-02-15T04:47:45.978Z,0.40
2023-02-15T04:50:13.348Z,0.40
2023-02-15T04:52:40.654Z,0.40
2023-02-15T04:55:08.321Z,0.30
2023-02-15T04:57:35.741Z,0.30
2023-02-15T05:00:03.720Z,0.30
2023-02-15T05:02:31.453Z,0.30
2023-02-15T05:04:58.826Z,0.30
2023-02-15T05:07:26.108Z,0.40
2023-02-15T05:09:53.309Z,0.40
2023-02-15T05:12:20.553Z,0.40
2023-02-15T05:14:47.802Z,0.40
2023-02-15T05:17:15.006Z,0.40
2023-02-15T05:19:42.234Z,0.40
2023-02-15T05:22:09.463Z,0.40
2023-02-15T05:24:55.024Z,0.30
2023-02-15T05:27:40.600Z,0.30
2023-02-15T05:30:12.796Z,0.30
2023-02-15T05:32:40.578Z,0.20
2023-02-15T05:35:08.812Z,0.20
2023-02-15T05:37:36.092Z,0.20
2023-02-15T05:40:03.632Z,0.20
2023-02-15T05:42:30.815Z,0.10
2023-02-15T05:44:58.037Z,0.20
2023-02-15T05:47:25.250Z,0.10
2023-02-15T05:49:52.593Z,0.10
2023-02-15T05:52:19.909Z,0.20
2023-02-15T05:54:47.156Z,0.20
2023-02-15T05:57:14.439Z,0.20
2023-02-15T05:59:41.643Z,0.20
2023-02-15T06:02:08.964Z,0.30
2023-02-15T06:04:36.221Z,0.30
2023-02-15T06:07:03.523Z,0.30
2023-02-15T06:09:30.847Z,0.30
2023-02-15T06:11:58.208Z,0.30
2023-02-15T06:14:25.468Z,0.20
2023-02-15T06:16:52.675Z,0.10
2023-02-15T06:19:20.138Z,0.10
2023-02-15T06:21:47.449Z,0.10
2023-02-15T06:24:14.662Z,0.10
2023-02-15T06:26:42.065Z,0.20
2023-02-15T06:29:09.311Z,0.20
2023-02-15T06:31:36.664Z,0.30
2023-02-15T06:34:03.969Z,0.20
2023-02-15T06:36:32.721Z,0.20
2023-02-15T06:39:00.155Z,0.30
2023-02-15T06:41:27.611Z,0.30
2023-02-15T06:43:54.886Z,0.30
2023-02-15T06:46:22.206Z,0.40
2023-02-15T06:48:49.526Z,0.40
2023-02-15T06:51:16.818Z,0.40
2023-02-15T06:53:44.083Z,0.40
2023-02-15T06:56:12.322Z,0.40
2023-02-15T06:58:43.611Z,0.40
2023-02-15T07:01:10.943Z,0.40
2023-02-15T07:03:38.196Z,0.40
2023-02-15T07:06:09.350Z,0.40
2023-02-15T07:08:37.874Z,0.40
2023-02-15T07:11:24.399Z,0.40
2023-02-15T07:13:53.495Z,0.40
2023-02-15T07:16:21.045Z,0.50
2023-02-15T07:18:48.400Z,0.50
2023-02-15T07:21:15.651Z,0.60
2023-02-15T07:23:42.972Z,0.60
2023-02-15T07:26:10.305Z,0.60
2023-02-15T07:28:37.727Z,0.70
2023-02-15T07:31:05.977Z,0.60
2023-02-15T07:33:34.320Z,0.50
2023-02-15T07:36:04.350Z,0.40
2023-02-15T07:38:36.683Z,0.50
2023-02-15T07:41:09.701Z,0.50
2023-02-15T07:43:39.519Z,0.60
2023-02-15T07:46:13.253Z,0.70
2023-02-15T07:48:43.127Z,0.70
2023-02-15T07:51:12.406Z,0.80
2023-02-15T07:53:40.372Z,0.80
2023-02-15T07:56:13.414Z,0.90
2023-02-15T07:58:52.730Z,0.90
2023-02-15T08:01:21.211Z,1.00
2023-02-15T08:03:48.932Z,1.00
2023-02-15T08:06:16.275Z,1.00
2023-02-15T08:08:43.871Z,1.00
2023-02-15T08:11:26.919Z,0.90
2023-02-15T08:13:56.477Z,1.00
2023-02-15T08:16:28.750Z,1.10
2023-02-15T08:18:57.502Z,1.10
2023-02-15T08:21:26.949Z,1.20
2023-02-15T08:23:54.689Z,1.10
2023-02-15T08:26:23.456Z,1.00
2023-02-15T08:28:52.267Z,1.10
2023-02-15T08:31:20.041Z,1.20
2023-02-15T08:33:48.683Z,1.30
2023-02-15T08:36:19.551Z,1.30
2023-02-15T08:38:47.320Z,1.50
2023-02-15T08:41:18.254Z,1.60
2023-02-15T08:43:46.635Z,1.50
2023-02-15T08:46:17.960Z,1.40
2023-02-15T08:48:45.686Z,1.50
2023-02-15T08:51:16.081Z,1.60
2023-02-15T08:53:46.613Z,1.70
2023-02-15T08:56:14.005Z,1.80
2023-02-15T08:58:41.412Z,1.90
2023-02-15T09:01:13.148Z,2.00
2023-02-15T09:03:40.793Z,2.10
2023-02-15T09:06:09.213Z,2.20
2023-02-15T09:08:36.804Z,2.10
2023-02-15T09:11:08.116Z,2.30
2023-02-15T09:13:35.838Z,2.30
2023-02-15T09:16:08.095Z,2.40
2023-02-15T09:18:38.482Z,2.60
2023-02-15T09:21:17.660Z,2.60
2023-02-15T09:23:46.650Z,2.80
2023-02-15T09:26:22.912Z,2.90
2023-02-15T09:28:54.156Z,2.70
2023-02-15T09:31:24.148Z,2.40
2023-02-15T09:33:51.788Z,2.50
2023-02-15T09:36:21.160Z,2.70
2023-02-15T09:38:55.960Z,2.90
2023-02-15T09:41:52.470Z,3.10
2023-02-15T09:44:43.560Z,3.10
2023-02-15T09:47:39.925Z,3.10
2023-02-15T09:50:25.844Z,3.10
2023-02-15T09:53:30.776Z,3.30
2023-02-15T09:55:57.990Z,3.30
2023-02-15T09:58:53.903Z,3.10
2023-02-15T10:01:24.024Z,3.30
2023-02-15T10:03:54.532Z,3.20
2023-02-15T10:06:45.404Z,3.40
2023-02-15T10:09:15.339Z,3.50
2023-02-15T10:12:08.995Z,3.70
2023-02-15T10:15:10.280Z,3.90
2023-02-15T10:17:56.395Z,4.00
2023-02-15T10:20:30.173Z,4.00
2023-02-15T10:23:35.493Z,4.00
2023-02-15T10:26:15.064Z,4.00
2023-02-15T10:28:57.322Z,4.10
2023-02-15T10:31:26.621Z,4.40
2023-02-15T10:34:09.665Z,4.60
2023-02-15T10:36:56.337Z,4.90
2023-02-15T10:39:44.728Z,5.20
2023-02-15T10:42:35.562Z,5.60
2023-02-15T10:45:11.533Z,5.60
2023-02-15T10:48:05.934Z,5.60
2023-02-15T10:50:36.221Z,5.60
2023-02-15T10:53:22.075Z,5.80
2023-02-15T10:56:04.942Z,6.00
2023-02-15T10:58:45.771Z,6.20
2023-02-15T11:01:26.409Z,6.30
2023-02-15T11:04:17.369Z,6.70
2023-02-15T11:06:52.354Z,6.80
2023-02-15T11:09:23.446Z,7.00
2023-02-15T11:11:56.761Z,7.00
2023-02-15T11:14:51.325Z,7.20
2023-02-15T11:17:40.689Z,7.50
2023-02-15T11:20:20.277Z,7.80
2023-02-15T11:22:54.389Z,8.00
2023-02-15T11:25:26.990Z,8.00
2023-02-15T11:27:56.453Z,7.80
2023-02-15T11:30:28.899Z,7.80
2023-02-15T11:33:03.058Z,7.30
2023-02-15T11:35:42.871Z,7.10
2023-02-15T11:38:27.951Z,7.20
2023-02-15T11:40:59.968Z,7.50
2023-02-15T11:43:43.582Z,7.70
2023-02-15T11:46:13.714Z,8.20
2023-02-15T11:48:41.726Z,7.70
2023-02-15T11:51:23.724Z,7.90
2023-02-15T11:53:51.851Z,7.80
2023-02-15T11:56:25.116Z,7.70
2023-02-15T11:59:08.492Z,8.30
2023-02-15T12:01:46.778Z,8.70
2023-02-15T12:04:42.646Z,9.10
2023-02-15T12:07:26.740Z,9.90
2023-02-15T12:10:18.343Z,10.70
2023-02-15T12:12:45.694Z,11.30
2023-02-15T12:15:14.869Z,11.10
2023-02-15T12:17:51.461Z,11.00
2023-02-15T12:20:18.584Z,11.10
2023-02-15T12:23:04.251Z,10.20
2023-02-15T12:25:37.964Z,10.70
2023-02-15T12:28:22.426Z,11.30
2023-02-15T12:30:50.035Z,11.70
2023-02-15T12:33:25.064Z,12.60
2023-02-15T12:36:13.781Z,13.00
2023-02-15T12:38:41.129Z,13.70
2023-02-15T12:41:25.837Z,14.00
2023-02-15T12:44:07.225Z,14.30
2023-02-15T12:46:38.431Z,15.50
2023-02-15T12:49:21.330Z,15.80
2023-02-15T12:51:52.379Z,17.30
2023-02-15T12:54:39.762Z,17.70
2023-02-15T12:57:29.340Z,17.90
2023-02-15T13:00:06.859Z,18.20
2023-02-15T13:02:44.733Z,18.20
2023-02-15T13:05:19.584Z,18.40
2023-02-15T13:07:54.439Z,18.80
2023-02-15T13:10:26.652Z,18.80
2023-02-15T13:12:55.381Z,19.30
2023-02-15T13:15:26.977Z,19.40
2023-02-15T13:17:56.047Z,19.80
2023-02-15T13:20:24.948Z,19.60
2023-02-15T13:22:58.064Z,19.90
2023-02-15T13:25:32.188Z,19.50
2023-02-15T13:28:04.406Z,19.90
2023-02-15T13:30:36.294Z,20.60
2023-02-15T13:33:27.365Z,20.50
2023-02-15T13:36:11.198Z,21.00
2023-02-15T13:39:12.123Z,22.30
2023-02-15T13:42:06.136Z,21.70
2023-02-15T13:45:02.942Z,23.00
2023-02-15T13:47:50.084Z,22.80
2023-02-15T13:50:48.157Z,21.70
2023-02-15T13:53:59.801Z,22.10
2023-02-15T13:56:29.985Z,21.90
2023-02-15T13:59:22.658Z,21.50
2023-02-15T14:01:55.674Z,21.10
2023-02-15T14:04:51.782Z,21.20
2023-02-15T14:07:26.557Z,23.60
2023-02-15T14:10:32.303Z,22.90
2023-02-15T14:13:24.766Z,21.90
2023-02-15T14:15:59.587Z,21.90
2023-02-15T14:18:35.608Z,21.40
2023-02-15T14:21:15.861Z,21.70
2023-02-15T14:24:27.393Z,21.80
2023-02-15T14:27:06.763Z,22.70
2023-02-15T14:29:54.512Z,23.60
2023-02-15T14:32:47.143Z,23.60
2023-02-15T14:35:17.447Z,23.50
2023-02-15T14:37:50.881Z,24.70
2023-02-15T14:41:02.095Z,24.40
2023-02-15T14:43:46.769Z,25.10
2023-02-15T14:46:20.049Z,24.10
2023-02-15T14:48:54.361Z,24.00
2023-02-15T14:51:47.031Z,24.00
2023-02-15T14:54:23.054Z,24.30
2023-02-15T14:57:02.340Z,24.20
2023-02-15T14:59:44.412Z,23.80
2023-02-15T15:02:18.905Z,23.70
2023-02-15T15:05:02.215Z,23.40
2023-02-15T15:07:39.463Z,23.90
2023-02-15T15:10:17.911Z,25.00
2023-02-15T15:12:49.665Z,24.00
2023-02-15T15:15:28.950Z,22.80
2023-02-15T15:18:09.226Z,22.60
2023-02-15T15:20:45.760Z,23.70
2023-02-15T15:23:16.005Z,23.00
2023-02-15T15:26:19.102Z,23.10
2023-02-15T15:28:46.378Z,23.00
2023-02-15T15:31:21.643Z,22.20
2023-02-15T15:34:26.684Z,21.20
2023-02-15T15:37:21.259Z,21.10
2023-02-15T15:40:30.716Z,20.90
2023-02-15T15:43:34.088Z,20.90
2023-02-15T15:46:53.234Z,20.80
2023-02-15T15:49:22.704Z,19.90
2023-02-15T15:51:50.486Z,20.30
2023-02-15T15:54:22.910Z,20.20
2023-02-15T15:57:03.326Z,19.70
2023-02-15T15:59:35.183Z,19.10
2023-02-15T16:02:07.410Z,18.20
2023-02-15T16:04:35.956Z,17.70
2023-02-15T16:07:18.248Z,16.30
2023-02-15T16:10:06.341Z,15.40
2023-02-15T16:12:39.522Z,14.80
2023-02-15T16:15:45.797Z,13.70
2023-02-15T16:18:18.295Z,12.70
2023-02-15T16:21:03.180Z,12.00
2023-02-15T16:23:33.558Z,11.20
2023-02-15T16:26:14.176Z,10.40
2023-02-15T16:28:52.086Z,9.30
2023-02-15T16:31:21.221Z,8.60
2023-02-15T16:33:51.549Z,7.80
2023-02-15T16:36:30.854Z,7.20
2023-02-15T16:39:11.567Z,6.60
2023-02-15T16:41:41.197Z,6.10
2023-02-15T16:44:21.523Z,5.70
2023-02-15T16:46:55.375Z,5.30
2023-02-15T16:49:26.418Z,5.00
2023-02-15T16:52:28.294Z,4.70
2023-02-15T16:55:05.791Z,4.60
2023-02-15T16:57:38.049Z,4.30
2023-02-15T17:00:09.615Z,4.10
2023-02-15T17:02:55.674Z,3.90
2023-02-15T17:05:58.778Z,3.80
2023-02-15T17:08:35.693Z,3.70
2023-02-15T17:11:17.586Z,3.50
2023-02-15T17:14:20.909Z,3.40
2023-02-15T17:16:57.890Z,3.20
2023-02-15T17:19:54.319Z,3.20
2023-02-15T17:22:25.954Z,3.00
2023-02-15T17:25:04.180Z,2.90
2023-02-15T17:27:34.410Z,2.80
2023-02-15T17:30:20.080Z,2.70
2023-02-15T17:33:00.575Z,2.60
2023-02-15T17:35:33.380Z,2.50
2023-02-15T17:38:21.954Z,2.50
2023-02-15T17:40:49.274Z,2.40
2023-02-15T17:43:16.489Z,2.30
2023-02-15T17:45:52.136Z,2.30
2023-02-15T17:48:32.179Z,2.20
2023-02-15T17:51:02.769Z,2.10
2023-02-15T17:53:30.663Z,2.10
2023-02-15T17:55:58.092Z,2.00
2023-02-15T17:58:25.487Z,2.00
2023-02-15T18:01:16.495Z,1.90
2023-02-15T18:04:03.923Z,1.90
2023-02-15T18:06:49.698Z,1.80
2023-02-15T18:09:37.934Z,1.70
2023-02-15T18:12:27.759Z,1.70
2023-02-15T18:14:56.473Z,1.60
2023-02-15T18:17:34.778Z,1.60
2023-02-15T18:20:07.625Z,1.60
2023-02-15T18:22:35.267Z,1.50
2023-02-15T18:25:02.738Z,1.50
2023-02-15T18:27:33.733Z,1.50
2023-02-15T18:30:01.138Z,1.50
2023-02-15T18:32:34.442Z,1.40
2023-02-15T18:35:04.746Z,1.40
2023-02-15T18:37:33.457Z,1.40
2023-02-15T18:40:04.118Z,1.40
2023-02-15T18:42:44.682Z,1.40
2023-02-15T18:45:19.519Z,1.40
2023-02-15T18:47:47.909Z,1.40
2023-02-15T18:50:17.275Z,1.50
2023-02-15T18:52:47.682Z,1.50
2023-02-15T18:55:21.177Z,1.60
2023-02-15T18:57:51.139Z,1.70
2023-02-15T19:00:28.431Z,1.70
2023-02-15T19:02:56.712Z,1.70
2023-02-15T19:05:27.700Z,1.70
2023-02-15T19:07:55.988Z,1.70
2023-02-15T19:10:26.277Z,1.70
2023-02-15T19:12:55.882Z,1.80
2023-02-15T19:15:25.896Z,1.80
2023-02-15T19:17:55.105Z,1.80
2023-02-15T19:20:28.168Z,1.80
2023-02-15T19:22:57.895Z,1.90
2023-02-15T19:25:28.160Z,1.90
2023-02-15T19:27:56.069Z,1.80
2023-02-15T19:30:30.086Z,1.80
2023-02-15T19:32:58.907Z,1.80
2023-02-15T19:35:30.369Z,1.80
2023-02-15T19:38:00.602Z,1.80
2023-02-15T19:40:31.631Z,1.80
2023-02-15T19:42:58.936Z,1.80
2023-02-15T19:45:29.143Z,1.80
2023-02-15T19:47:56.692Z,1.80
2023-02-15T19:50:30.137Z,1.90
2023-02-15T19:52:57.882Z,1.90
2023-02-15T19:55:30.862Z,2.00
2023-02-15T19:57:59.793Z,1.90
2023-02-15T20:00:33.800Z,1.90
2023-02-15T20:03:01.577Z,1.90
2023-02-15T20:05:30.452Z,2.00
2023-02-15T20:07:58.429Z,1.90
2023-02-15T20:10:28.990Z,1.90
2023-02-15T20:12:56.944Z,1.90
2023-02-15T20:15:29.720Z,1.80
2023-02-15T20:17:58.478Z,1.80
2023-02-15T20:20:45.363Z,1.90
2023-02-15T20:23:31.539Z,1.90
2023-02-15T20:26:00.997Z,1.80
2023-02-15T20:28:31.017Z,1.80
2023-02-15T20:30:59.267Z,1.80
2023-02-15T20:33:26.673Z,1.80
2023-02-15T20:35:53.986Z,1.80
2023-02-15T20:38:25.668Z,1.80
2023-02-15T20:41:12.200Z,1.80
2023-02-15T20:43:40.025Z,1.90
2023-02-15T20:46:08.815Z,1.80
2023-02-15T20:48:36.123Z,1.80
2023-02-15T20:51:04.223Z,1.90
2023-02-15T20:53:31.871Z,1.90
2023-02-15T20:55:59.147Z,1.90
2023-02-15T20:58:29.964Z,1.90
2023-02-15T21:00:58.964Z,1.80
2023-02-15T21:03:30.866Z,1.80
2023-02-15T21:05:59.249Z,1.70
2023-02-15T21:08:27.321Z,1.70
2023-02-15T21:10:55.151Z,1.70
2023-02-15T21:13:26.573Z,1.70
2023-02-15T21:15:55.406Z,1.80
2023-02-15T21:18:25.615Z,1.70
2023-02-15T21:20:55.179Z,1.60
2023-02-15T21:23:27.095Z,1.60
2023-02-15T21:25:55.424Z,1.70
2023-02-15T21:28:25.439Z,1.70
2023-02-15T21:30:54.078Z,1.60
2023-02-15T21:33:21.442Z,1.70
2023-02-15T21:35:52.040Z,1.70
2023-02-15T21:38:22.735Z,1.70
2023-02-15T21:40:50.780Z,1.70
2023-02-15T21:43:40.827Z,1.70
2023-02-15T21:46:38.310Z,1.70
2023-02-15T21:49:08.614Z,1.70
2023-02-15T21:51:54.126Z,1.70
2023-02-15T21:54:21.628Z,1.70
2023-02-15T21:56:51.046Z,1.60
2023-02-15T21:59:18.775Z,1.60
2023-02-15T22:01:49.737Z,1.60
2023-02-15T22:04:28.512Z,1.50
2023-02-15T22:06:56.449Z,1.50
2023-02-15T22:09:26.883Z,1.50
2023-02-15T22:11:55.120Z,1.40
2023-02-15T22:14:35.500Z,1.30
2023-02-15T22:17:03.858Z,1.20
2023-02-15T22:19:31.141Z,1.30
2023-02-15T22:21:58.511Z,1.30
2023-02-15T22:24:27.016Z,1.30
2023-02-15T22:26:54.355Z,1.30
2023-02-15T22:29:21.913Z,1.20
2023-02-15T22:31:49.785Z,1.30
2023-02-15T22:34:26.256Z,1.30
2023-02-15T22:36:54.250Z,1.30
2023-02-15T22:39:24.949Z,1.30
2023-02-15T22:41:53.329Z,1.30
2023-02-15T22:44:25.378Z,1.30
2023-02-15T22:46:53.211Z,1.20
2023-02-15T22:49:20.649Z,1.20
2023-02-15T22:51:49.420Z,1.30
2023-02-15T22:54:18.262Z,1.30
2023-02-15T22:56:53.621Z,1.30
2023-02-15T22:59:30.078Z,1.30
2023-02-15T23:01:57.721Z,1.30
2023-02-15T23:04:27.672Z,1.30
2023-02-15T23:06:58.275Z,1.30
2023-02-15T23:09:25.523Z,1.30
2023-02-15T23:11:53.920Z,1.30
2023-02-15T23:14:36.438Z,1.30
2023-02-15T23:17:03.731Z,1.20
2023-02-15T23:19:30.926Z,1.20
2023-02-15T23:21:58.296Z,1.20
2023-02-15T23:24:30.634Z,1.20
2023-02-15T23:27:18.233Z,1.20
2023-02-15T23:29:45.564Z,1.10
2023-02-15T23:32:14.542Z,1.10
2023-02-15T23:34:42.614Z,1.10
2023-02-15T23:37:14.405Z,1.10
2023-02-15T23:40:00.068Z,1.10
2023-02-15T23:42:30.591Z,1.00
2023-02-15T23:44:57.946Z,1.00
2023-02-15T23:47:50.276Z,1.00
2023-02-15T23:50:24.334Z,1.00
2023-02-15T23:52:53.384Z,0.90
2023-02-15T23:55:22.048Z,0.90
2023-02-15T23:57:49.977Z,0.90
